|
公曆農曆對照

機場天氣預報 (TAF)

機場天氣預報 (TAF) 載述關於某個機場在預測期內預料會出現的氣象要素。

香港天文台在 19 年 06 月 25 日 07 時 00 分最新發出的香港國際機場天氣預報

TAF VHHH 242300Z 2500/2606 19010KT 9000 FEW015 SCT035 TX31/2507Z TX32/2606Z TN26/2522Z TEMPO 2500/2509 VRB05KT TEMPO 2506/2512 3500 SHRA FEW015CB SCT025 TEMPO 2518/2524 VRB15G25KT 2500 TSRA FEW010CB SCT020 BKN040 TEMPO 2603/2606 3500 SHRA FEW015CB SCT025=

(下次更新時間:19年06月25日13時00分)

機場天氣預報電碼經解碼後:-

香港天文台發出 2019 年 06 月 25 日 00 協調世界時 至 2019 年 06 月 26 日 06 協調世界時 的機場天氣預報:
 

時間(協調世界時) 能見度 天氣狀況 雲層 雲層高度
2019 年 06 月 25 日 00 時 至 2019 年 06 月 26 日 06 時 南風 (190 o) 10 海里/小時 9 公里 無重要天氣狀況
1-2
3-4
1500 呎
3500 呎
2019 年 06 月 25 日 00 時 至 09 時 期間間中 5 海里/小時 (風向不定) 9 公里 無重要天氣狀況
1-2
3-4
1500 呎
3500 呎
2019 年 06 月 25 日 06 時 至 12 時 期間間中 南風 (190 o) 10 海里/小時 3500 米 驟雨
1-2 積雨雲
3-4
1500 呎
2500 呎
2019 年 06 月 25 日 18 時 至 24 時 期間間中 15 海里/小時,陣風達 25 海里/小時 (風向不定) 2500 米 雷暴及雨
1-2 積雨雲
3-4
5-7
1000 呎
2000 呎
4000 呎
2019 年 06 月 26 日 03 時 至 06 時 期間間中 南風 (190 o) 10 海里/小時 3500 米 驟雨
1-2 積雨雲
3-4
1500 呎
2500 呎

時間(協調世界時) 氣溫
2019 年 06 月 25 日 07 時
最高31 oC
2019 年 06 月 26 日 06 時
最高32 oC
2019 年 06 月 25 日 22 時
最低26 oC

份: 雲層是以估計天空被雲遮蔽之總面積來評定。把天空分為八份,1 份即是八份之一的天空被雲遮蔽,2 份即是八份之二的天空被雲遮蔽,如此類推。
  0 份 = 天朗氣清,1-2 份 = 稀薄雲層,3-4 份 = 零散雲層,5-7 份 = 疏鬆雲層,8 份 = 天色陰暗。
若想進一步瞭解機場天氣預報(TAF)的編碼,請參看剖析TAF電碼的意義
若想進一步瞭解雲,請參看香港常見的雲
 
香港國際機場航空天氣報告資料 本港地區航空天氣預報
 
版權及聲明